Time;durP1;ratioP1;P1;durP2;ratioP2;P2;SDS_P1;SDS_P2;PMS_P1;PMS_P2;Temp;Humidity;BMP_temperature;BMP_pressure;BME280_temperature;BME280_humidity;BME280_pressure;Samples;Min_cycle;Max_cycle;Signal;HPM_P1;HPM_P2
2021/12/14 00:01:35;;;;;;;20.90;9.55;;;;;;;;;;4875415;29;20029;-82
2021/12/14 00:04:05;;;;;;;17.92;9.02;;;;;;;;;;4860778;29;20410;-82
2021/12/14 00:06:31;;;;;;;24.60;8.88;;;;;;;;;;4860410;29;20036;-83
2021/12/14 00:08:59;;;;;;;17.15;8.77;;;;;;;;;;4860810;29;20112;-83
2021/12/14 00:14:24;;;;;;;19.08;9.13;;;;;;;;;;4878576;29;20344;-83
2021/12/14 00:16:51;;;;;;;18.55;9.15;;;;;;;;;;4878738;29;20549;-83
2021/12/14 00:19:17;;;;;;;16.70;8.73;;;;;;;;;;4861919;29;20053;-83
2021/12/14 00:21:49;;;;;;;19.38;8.48;;;;;;;;;;4879106;29;20032;-83
2021/12/14 00:24:15;;;;;;;22.65;8.88;;;;;;;;;;4878110;29;20075;-83
2021/12/14 00:26:43;;;;;;;19.63;8.85;;;;;;;;;;4878814;29;20025;-82
2021/12/14 00:29:13;;;;;;;18.30;8.15;;;;;;;;;;4878673;29;20044;-82
2021/12/14 00:31:39;;;;;;;19.35;9.35;;;;;;;;;;4862359;29;20052;-83
2021/12/14 00:34:07;;;;;;;16.27;8.43;;;;;;;;;;4878748;29;20078;-83
2021/12/14 00:36:35;;;;;;;15.90;9.30;;;;;;;;;;4876645;29;20541;-83
2021/12/14 00:39:02;;;;;;;21.70;8.75;;;;;;;;;;4877800;29;20438;-82
2021/12/14 00:41:30;;;;;;;23.15;9.43;;;;;;;;;;4878380;29;20406;-83
2021/12/14 00:43:56;;;;;;;18.30;9.60;;;;;;;;;;4878817;29;20033;-83
2021/12/14 00:46:23;;;;;;;20.38;9.15;;;;;;;;;;4878591;29;20036;-83
2021/12/14 00:48:50;;;;;;;17.20;8.85;;;;;;;;;;4878565;29;20033;-83
2021/12/14 00:51:17;;;;;;;17.23;8.13;;;;;;;;;;4860413;29;20032;-83
2021/12/14 00:53:43;;;;;;;14.95;7.95;;;;;;;;;;4878381;29;20028;-83
2021/12/14 00:56:11;;;;;;;16.25;8.18;;;;;;;;;;4878570;29;20021;-83
2021/12/14 00:58:37;;;;;;;12.68;7.63;;;;;;;;;;4861468;29;20460;-83
2021/12/14 01:01:06;;;;;;;18.40;8.70;;;;;;;;;;4878781;29;20029;-83
2021/12/14 01:03:33;;;;;;;14.93;7.53;;;;;;;;;;4878082;29;20037;-83
2021/12/14 01:06:00;;;;;;;11.02;6.50;;;;;;;;;;4876964;29;20103;-83
2021/12/14 01:08:29;;;;;;;13.90;6.88;;;;;;;;;;4878199;29;20482;-83
2021/12/14 01:11:01;;;;;;;17.40;7.88;;;;;;;;;;4878712;29;20565;-83
2021/12/14 01:13:29;;;;;;;15.32;8.45;;;;;;;;;;4878136;29;20033;-83
2021/12/14 01:16:17;;;;;;;19.73;9.75;;;;;;;;;;4878519;29;20104;-83
2021/12/14 01:18:48;;;;;;;13.70;8.15;;;;;;;;;;4878049;29;20052;-83
2021/12/14 01:24:01;;;;;;;14.38;7.85;;;;;;;;;;4878196;29;20060;-83
2021/12/14 01:26:30;;;;;;;19.00;8.48;;;;;;;;;;4861329;29;20413;-83
2021/12/14 01:28:56;;;;;;;18.35;8.48;;;;;;;;;;4861405;29;20059;-83
2021/12/14 01:31:31;;;;;;;16.17;8.45;;;;;;;;;;4877939;29;20049;-83
2021/12/14 01:34:01;;;;;;;16.65;7.60;;;;;;;;;;4878142;29;20033;-83
2021/12/14 01:41:45;;;;;;;19.00;6.50;;;;;;;;;;4878151;29;20036;-83
2021/12/14 01:44:11;;;;;;;13.15;6.22;;;;;;;;;;4877844;29;20037;-83
2021/12/14 01:46:43;;;;;;;11.80;6.15;;;;;;;;;;4877813;29;20032;-83
2021/12/14 01:49:11;;;;;;;14.45;6.55;;;;;;;;;;4861150;29;20033;-83
2021/12/14 01:51:38;;;;;;;17.50;6.05;;;;;;;;;;4877647;29;20033;-83
2021/12/14 01:54:05;;;;;;;10.88;5.63;;;;;;;;;;4877911;29;20375;-83
2021/12/14 01:56:32;;;;;;;12.30;6.43;;;;;;;;;;4877670;29;20442;-82
2021/12/14 01:59:00;;;;;;;10.73;5.55;;;;;;;;;;4861212;29;20124;-83
2021/12/14 02:01:35;;;;;;;14.30;6.70;;;;;;;;;;4878111;29;20446;-82
2021/12/14 02:04:07;;;;;;;15.05;6.28;;;;;;;;;;4877278;29;20033;-83
2021/12/14 02:06:34;;;;;;;11.83;5.87;;;;;;;;;;4875914;29;20100;-83
2021/12/14 02:09:11;;;;;;;9.02;5.13;;;;;;;;;;4881897;29;20029;-82
2021/12/14 02:11:40;;;;;;;10.73;5.75;;;;;;;;;;4881439;29;20041;-83
2021/12/14 02:14:06;;;;;;;15.13;6.28;;;;;;;;;;4881612;29;20404;-83
2021/12/14 02:16:33;;;;;;;11.35;5.88;;;;;;;;;;4881045;29;20120;-83
2021/12/14 02:19:05;;;;;;;11.40;5.75;;;;;;;;;;4880410;29;20520;-82
2021/12/14 02:21:32;;;;;;;13.30;6.32;;;;;;;;;;4880886;29;20037;-83
2021/12/14 02:24:00;;;;;;;12.05;6.18;;;;;;;;;;4880970;29;20485;-82
2021/12/14 02:26:29;;;;;;;11.35;5.63;;;;;;;;;;4881353;29;20033;-82
2021/12/14 02:28:56;;;;;;;16.70;6.18;;;;;;;;;;4880867;29;20033;-82
2021/12/14 02:31:23;;;;;;;11.98;6.30;;;;;;;;;;4880278;29;20248;-82
2021/12/14 02:33:50;;;;;;;16.70;6.97;;;;;;;;;;4880345;29;20025;-83
2021/12/14 02:36:24;;;;;;;12.35;6.65;;;;;;;;;;4864454;29;20056;-83
2021/12/14 02:39:04;;;;;;;16.27;7.28;;;;;;;;;;4880552;29;20032;-82
2021/12/14 02:41:30;;;;;;;11.70;6.43;;;;;;;;;;4880633;29;20223;-83
2021/12/14 02:43:57;;;;;;;11.05;6.07;;;;;;;;;;4880609;29;20521;-83
2021/12/14 02:46:36;;;;;;;18.58;9.35;;;;;;;;;;4880415;29;20044;-83
2021/12/14 02:49:07;;;;;;;22.67;9.02;;;;;;;;;;4864075;29;20456;-83
2021/12/14 02:51:35;;;;;;;54.53;13.88;;;;;;;;;;4863824;29;20033;-83
2021/12/14 02:54:04;;;;;;;58.55;14.63;;;;;;;;;;4880076;29;20181;-83
2021/12/14 02:56:31;;;;;;;89.85;15.70;;;;;;;;;;4880819;29;20101;-82
2021/12/14 02:58:59;;;;;;;61.90;14.98;;;;;;;;;;4880424;29;20429;-82
2021/12/14 03:01:26;;;;;;;68.90;16.00;;;;;;;;;;4879435;29;20386;-83
2021/12/14 03:03:52;;;;;;;75.97;15.48;;;;;;;;;;4875474;29;20033;-83
2021/12/14 03:06:24;;;;;;;63.58;14.02;;;;;;;;;;4861866;29;20034;-82
2021/12/14 03:09:07;;;;;;;72.95;15.00;;;;;;;;;;4861558;29;20431;-82
2021/12/14 03:11:34;;;;;;;47.05;11.85;;;;;;;;;;4861625;29;20029;-82
2021/12/14 03:14:00;;;;;;;52.72;13.05;;;;;;;;;;4861453;29;20057;-82
2021/12/14 03:16:28;;;;;;;47.97;12.73;;;;;;;;;;4861096;29;20037;-82
2021/12/14 03:18:55;;;;;;;27.85;12.32;;;;;;;;;;4863000;29;20049;-83
2021/12/14 03:21:22;;;;;;;22.55;11.35;;;;;;;;;;4880185;29;20049;-83
2021/12/14 03:23:50;;;;;;;19.27;11.23;;;;;;;;;;4879713;29;20036;-82
2021/12/14 03:26:18;;;;;;;17.50;10.63;;;;;;;;;;4879950;29;20040;-82
2021/12/14 03:28:47;;;;;;;21.25;10.88;;;;;;;;;;4879774;29;20029;-83
2021/12/14 03:31:16;;;;;;;16.80;11.27;;;;;;;;;;4865365;29;20041;-83
2021/12/14 03:33:44;;;;;;;16.23;10.00;;;;;;;;;;4861330;29;20057;-82
2021/12/14 03:36:12;;;;;;;17.05;9.68;;;;;;;;;;4869720;29;20044;-83
2021/12/14 03:38:41;;;;;;;15.10;8.70;;;;;;;;;;4879520;29;20029;-82
2021/12/14 03:41:10;;;;;;;16.88;9.25;;;;;;;;;;4862994;29;20037;-82
2021/12/14 03:43:36;;;;;;;13.93;8.40;;;;;;;;;;4879461;29;20036;-83
2021/12/14 03:46:03;;;;;;;13.60;8.25;;;;;;;;;;4879626;29;20040;-83
2021/12/14 03:48:31;;;;;;;12.63;7.82;;;;;;;;;;4879617;29;20052;-82
2021/12/14 03:50:57;;;;;;;12.27;7.55;;;;;;;;;;4878549;29;20041;-83
2021/12/14 03:53:24;;;;;;;11.98;6.53;;;;;;;;;;4879714;29;20508;-83
2021/12/14 03:55:52;;;;;;;11.00;6.20;;;;;;;;;;4879349;29;20123;-82
2021/12/14 03:58:22;;;;;;;11.73;5.97;;;;;;;;;;4879421;29;20524;-82
2021/12/14 04:00:51;;;;;;;7.70;4.68;;;;;;;;;;4878755;29;20140;-82
2021/12/14 04:03:18;;;;;;;7.00;4.38;;;;;;;;;;4879449;29;20029;-82
2021/12/14 04:05:45;;;;;;;8.02;4.10;;;;;;;;;;4877851;29;20035;-83
2021/12/14 04:08:12;;;;;;;5.80;3.95;;;;;;;;;;4879075;29;20025;-82
2021/12/14 04:10:40;;;;;;;6.72;4.05;;;;;;;;;;4862533;29;20033;-83
2021/12/14 04:13:07;;;;;;;6.07;4.13;;;;;;;;;;4878767;29;20056;-82
2021/12/14 04:15:33;;;;;;;8.57;4.25;;;;;;;;;;4878638;29;20036;-83
2021/12/14 04:18:00;;;;;;;6.57;4.25;;;;;;;;;;4878595;29;20109;-82
2021/12/14 04:20:33;;;;;;;5.60;3.30;;;;;;;;;;4878065;29;20036;-83
2021/12/14 04:23:00;;;;;;;5.93;3.45;;;;;;;;;;4879321;29;20434;-82
2021/12/14 04:25:29;;;;;;;6.05;3.67;;;;;;;;;;4878929;29;20036;-82
2021/12/14 04:27:56;;;;;;;11.10;3.60;;;;;;;;;;4877857;29;20545;-83
2021/12/14 04:30:24;;;;;;;6.28;3.97;;;;;;;;;;4876886;29;20108;-82
2021/12/14 04:32:51;;;;;;;6.60;3.38;;;;;;;;;;4860076;29;20021;-82
2021/12/14 04:35:18;;;;;;;7.40;3.75;;;;;;;;;;4870961;29;20033;-82
2021/12/14 04:37:48;;;;;;;7.13;3.33;;;;;;;;;;4878642;29;20104;-82
2021/12/14 04:54:10;;;;;;;19.23;4.70;;;;;;;;;;4821275;29;20212;-82
2021/12/14 04:56:40;;;;;;;18.00;4.82;;;;;;;;;;4821448;29;20038;-83
2021/12/14 04:59:09;;;;;;;8.50;4.57;;;;;;;;;;4821181;29;20117;-82
2021/12/14 05:01:37;;;;;;;11.07;4.78;;;;;;;;;;4821110;29;20417;-82
2021/12/14 05:04:05;;;;;;;9.00;3.85;;;;;;;;;;4820425;29;20037;-82
2021/12/14 05:06:44;;;;;;;7.85;3.72;;;;;;;;;;4792525;29;20054;-82
2021/12/14 05:09:26;;;;;;;7.65;3.70;;;;;;;;;;4802820;29;20035;-82
2021/12/14 05:11:54;;;;;;;9.93;4.10;;;;;;;;;;4787820;29;20039;-82
2021/12/14 05:14:21;;;;;;;18.95;4.07;;;;;;;;;;4802820;29;20300;-84
2021/12/14 05:16:48;;;;;;;10.32;3.97;;;;;;;;;;4803057;29;20539;-83
2021/12/14 05:19:14;;;;;;;39.13;4.63;;;;;;;;;;4817422;29;20059;-82
2021/12/14 05:21:43;;;;;;;7.93;3.88;;;;;;;;;;4872200;29;20025;-83
2021/12/14 05:24:11;;;;;;;6.68;4.03;;;;;;;;;;4843117;29;20036;-83
2021/12/14 05:26:38;;;;;;;7.55;3.22;;;;;;;;;;4874917;29;20036;-82
2021/12/14 05:29:05;;;;;;;24.58;3.58;;;;;;;;;;4860567;29;20033;-83
2021/12/14 05:31:31;;;;;;;9.30;2.90;;;;;;;;;;4869261;29;20053;-82
2021/12/14 05:33:57;;;;;;;5.78;2.30;;;;;;;;;;4868363;29;20036;-84
2021/12/14 05:36:23;;;;;;;6.97;2.40;;;;;;;;;;4869049;29;20029;-82
2021/12/14 05:44:10;;;;;;;6.20;2.05;;;;;;;;;;4868515;29;20071;-83
2021/12/14 05:46:36;;;;;;;4.55;1.85;;;;;;;;;;4881434;29;20073;-86
2021/12/14 05:49:06;;;;;;;5.85;2.20;;;;;;;;;;4881100;29;20029;-84
2021/12/14 05:51:33;;;;;;;7.32;2.13;;;;;;;;;;4875415;29;20478;-84
2021/12/14 05:54:00;;;;;;;4.13;1.95;;;;;;;;;;4877908;29;20037;-83
2021/12/14 05:56:27;;;;;;;4.32;2.20;;;;;;;;;;4845621;29;20026;-83
2021/12/14 05:58:58;;;;;;;3.47;2.08;;;;;;;;;;4862946;29;20148;-83
2021/12/14 06:01:27;;;;;;;5.43;2.77;;;;;;;;;;4879752;29;20033;-84
2021/12/14 06:03:59;;;;;;;5.57;2.72;;;;;;;;;;4864131;29;20274;-85
2021/12/14 06:06:27;;;;;;;;;;;;;;;;;;4855598;29;20033;-85
2021/12/14 06:09:00;;;;;;;4.95;2.60;;;;;;;;;;4868597;29;19963;-86
2021/12/14 06:11:28;;;;;;;5.82;2.65;;;;;;;;;;4880563;29;20040;-85
2021/12/14 06:13:55;;;;;;;4.68;2.90;;;;;;;;;;4881235;29;20029;-84
2021/12/14 06:16:24;;;;;;;7.18;3.67;;;;;;;;;;4863796;29;20534;-83
2021/12/14 06:18:50;;;;;;;6.10;3.90;;;;;;;;;;4880503;29;20580;-83
2021/12/14 06:21:18;;;;;;;6.95;3.88;;;;;;;;;;4864318;29;20406;-82
2021/12/14 06:23:44;;;;;;;6.60;3.78;;;;;;;;;;4884720;29;20025;-82
2021/12/14 06:26:13;;;;;;;6.90;3.97;;;;;;;;;;4863154;29;20170;-82
2021/12/14 11:23:05;;;;;;;13.13;6.22;;;;;;;;;;5673028;23;20076;-85
2021/12/14 11:25:33;;;;;;;11.63;6.82;;;;;;;;;;4878926;29;20033;-85
2021/12/14 11:28:04;;;;;;;12.02;6.97;;;;;;;;;;4879970;29;20104;-84
2021/12/14 11:30:42;;;;;;;10.25;6.32;;;;;;;;;;4879700;29;20547;-84
2021/12/14 11:33:18;;;;;;;10.82;6.57;;;;;;;;;;4878880;29;20036;-82
2021/12/14 11:35:59;;;;;;;12.20;5.90;;;;;;;;;;4878396;29;20029;-86
2021/12/14 11:38:31;;;;;;;11.07;5.83;;;;;;;;;;4864014;29;20045;-86
2021/12/14 11:40:59;;;;;;;10.10;5.88;;;;;;;;;;4880136;29;20738;-85
2021/12/14 11:43:27;;;;;;;14.27;8.50;;;;;;;;;;4880374;29;20049;-86
2021/12/14 11:45:53;;;;;;;15.50;8.05;;;;;;;;;;4880250;29;20061;-84
2021/12/14 11:48:36;;;;;;;21.90;9.73;;;;;;;;;;4879929;29;20036;-86
2021/12/14 11:51:03;;;;;;;20.52;10.88;;;;;;;;;;4879707;29;20545;-85
2021/12/14 11:53:29;;;;;;;17.70;9.25;;;;;;;;;;4879565;29;20035;-85
2021/12/14 11:56:01;;;;;;;27.10;11.23;;;;;;;;;;4894569;29;20025;-85
2021/12/14 11:58:36;;;;;;;16.60;10.05;;;;;;;;;;4869909;29;20053;-85
2021/12/14 12:01:08;;;;;;;19.27;11.73;;;;;;;;;;4879936;29;20049;-84
2021/12/14 12:03:40;;;;;;;15.30;9.25;;;;;;;;;;4879726;29;20036;-85
2021/12/14 12:06:09;;;;;;;17.42;10.65;;;;;;;;;;4862556;29;20378;-85
2021/12/14 12:11:24;;;;;;;22.40;9.68;;;;;;;;;;4879399;29;20088;-86
2021/12/14 12:13:50;;;;;;;21.85;10.25;;;;;;;;;;4879321;29;20061;-86
2021/12/14 12:16:25;;;;;;;16.90;9.20;;;;;;;;;;4879993;29;20065;-85
2021/12/14 12:19:08;;;;;;;23.58;9.10;;;;;;;;;;4879781;29;20073;-85
2021/12/14 12:21:34;;;;;;;16.42;9.80;;;;;;;;;;4879400;29;20024;-85
2021/12/14 12:24:01;;;;;;;14.05;8.52;;;;;;;;;;4879349;29;20057;-85
2021/12/14 12:26:30;;;;;;;18.05;8.82;;;;;;;;;;4879977;29;20033;-86
2021/12/14 14:56:29;;;;;;;20.50;9.98;;;;;;;;;;5591046;23;20057;-82
2021/12/14 14:59:14;;;;;;;22.35;10.82;;;;;;;;;;4882321;29;20408;-82
2021/12/14 15:01:40;;;;;;;22.13;10.07;;;;;;;;;;4899787;29;20028;-81
2021/12/14 15:04:06;;;;;;;20.45;9.95;;;;;;;;;;4899125;29;20017;-81
2021/12/14 15:06:34;;;;;;;20.05;10.50;;;;;;;;;;4898976;29;20488;-81
2021/12/14 15:09:00;;;;;;;22.50;11.32;;;;;;;;;;4899440;29;20362;-80
2021/12/14 15:11:29;;;;;;;22.30;10.48;;;;;;;;;;4898303;29;20025;-81
2021/12/14 15:14:14;;;;;;;23.67;12.18;;;;;;;;;;4898841;29;20508;-80
2021/12/14 15:16:46;;;;;;;23.17;11.63;;;;;;;;;;4898523;29;20036;-80
2021/12/14 15:19:12;;;;;;;;;;;;;;;;;;4883123;29;20029;-80
2021/12/14 15:21:41;;;;;;;34.35;12.25;;;;;;;;;;4899656;29;19914;-80
2021/12/14 15:24:26;;;;;;;26.73;12.02;;;;;;;;;;4899124;29;20501;-80
2021/12/14 15:27:09;;;;;;;26.63;10.65;;;;;;;;;;4899182;29;20056;-81
2021/12/14 15:29:47;;;;;;;27.67;12.10;;;;;;;;;;4899871;29;20064;-80
2021/12/14 15:32:16;;;;;;;24.83;10.90;;;;;;;;;;4881786;29;20052;-80
2021/12/14 15:34:54;;;;;;;23.92;11.40;;;;;;;;;;4899438;29;20107;-80
2021/12/14 15:37:42;;;;;;;28.65;13.38;;;;;;;;;;4899308;29;20023;-81
2021/12/14 15:40:17;;;;;;;27.77;13.10;;;;;;;;;;4899079;29;20028;-81
2021/12/14 15:42:45;;;;;;;33.30;12.80;;;;;;;;;;4899105;29;20023;-80
2021/12/14 15:45:12;;;;;;;35.05;13.57;;;;;;;;;;4898851;29;20028;-81
2021/12/14 15:47:57;;;;;;;30.30;14.40;;;;;;;;;;4898885;29;20055;-82
2021/12/14 15:50:23;;;;;;;30.73;14.00;;;;;;;;;;4882054;29;20107;-80
2021/12/14 15:53:07;;;;;;;29.52;13.50;;;;;;;;;;4898413;29;20024;-83
2021/12/14 15:55:34;;;;;;;24.98;12.57;;;;;;;;;;4899343;29;20672;-80
2021/12/14 15:58:02;;;;;;;23.70;12.88;;;;;;;;;;4860585;29;20478;-80
2021/12/14 16:00:28;;;;;;;27.08;12.13;;;;;;;;;;4879337;29;20516;-80
2021/12/14 16:02:54;;;;;;;22.70;10.85;;;;;;;;;;4879959;29;20017;-80
2021/12/14 16:05:20;;;;;;;19.73;9.80;;;;;;;;;;4879880;29;20477;-80
2021/12/14 16:07:48;;;;;;;19.52;9.55;;;;;;;;;;4880170;29;20089;-81
2021/12/14 16:10:22;;;;;;;29.33;8.95;;;;;;;;;;4880015;29;20052;-81
2021/12/14 16:15:38;;;;;;;21.90;8.00;;;;;;;;;;4867897;29;20047;-80
2021/12/14 16:18:05;;;;;;;35.85;8.85;;;;;;;;;;4880117;29;20085;-81
2021/12/14 16:20:37;;;;;;;26.80;10.23;;;;;;;;;;4878784;29;20535;-83
2021/12/14 16:23:03;;;;;;;;;;;;;;;;;;4879550;29;20029;-80
2021/12/14 16:25:41;;;;;;;23.88;9.20;;;;;;;;;;4879906;29;19912;-83
2021/12/14 16:28:09;;;;;;;20.60;8.77;;;;;;;;;;4879987;29;20088;-80
2021/12/14 16:30:35;;;;;;;18.83;9.45;;;;;;;;;;4879427;29;20028;-80
2021/12/14 16:33:25;;;;;;;19.73;8.77;;;;;;;;;;4879441;29;20497;-80
2021/12/14 16:35:59;;;;;;;20.17;8.85;;;;;;;;;;4879238;29;20049;-80
2021/12/14 16:38:28;;;;;;;21.60;8.98;;;;;;;;;;4879672;29;20029;-80
2021/12/14 16:40:55;;;;;;;20.08;7.90;;;;;;;;;;4879557;29;20036;-80
2021/12/14 16:43:26;;;;;;;19.23;9.13;;;;;;;;;;4879268;29;20107;-82
2021/12/14 16:45:54;;;;;;;13.27;7.35;;;;;;;;;;4879492;29;20080;-80
2021/12/14 16:48:25;;;;;;;19.55;8.30;;;;;;;;;;4879003;29;20029;-80
2021/12/14 16:50:51;;;;;;;16.23;8.32;;;;;;;;;;4879147;29;20037;-80
2021/12/14 16:53:17;;;;;;;12.57;7.78;;;;;;;;;;4879411;29;20032;-80
2021/12/14 16:55:44;;;;;;;17.45;8.35;;;;;;;;;;4879300;29;20033;-82
2021/12/14 16:58:12;;;;;;;15.32;7.53;;;;;;;;;;4881162;29;20036;-81
2021/12/14 17:00:44;;;;;;;31.25;8.95;;;;;;;;;;4897594;29;20178;-88
2021/12/14 17:03:10;;;;;;;18.20;8.43;;;;;;;;;;4897534;29;20025;-83
2021/12/14 17:05:41;;;;;;;15.18;8.30;;;;;;;;;;4898086;29;20032;-84
2021/12/14 17:08:09;;;;;;;20.77;8.40;;;;;;;;;;4897704;29;20465;-81
2021/12/14 17:10:37;;;;;;;15.23;8.25;;;;;;;;;;4889582;29;20088;-81
2021/12/14 17:13:09;;;;;;;31.33;9.60;;;;;;;;;;4879158;29;20498;-82
2021/12/14 17:15:39;;;;;;;16.85;9.23;;;;;;;;;;4878135;29;20385;-82
2021/12/14 17:18:07;;;;;;;22.35;9.48;;;;;;;;;;4895930;29;20029;-83
2021/12/14 17:20:39;;;;;;;27.33;11.23;;;;;;;;;;4893357;29;20104;-83
2021/12/14 17:23:15;;;;;;;19.75;10.18;;;;;;;;;;4893396;29;20572;-85
2021/12/14 17:25:41;;;;;;;22.77;9.50;;;;;;;;;;4884450;29;20052;-83
2021/12/14 17:28:07;;;;;;;18.80;9.82;;;;;;;;;;4887320;29;20063;-82
2021/12/14 17:30:33;;;;;;;23.75;12.52;;;;;;;;;;4894775;29;20028;-82
2021/12/14 17:32:59;;;;;;;37.65;19.45;;;;;;;;;;4886095;29;20039;-82
2021/12/14 17:35:27;;;;;;;44.63;25.13;;;;;;;;;;4899397;29;20036;-82
2021/12/14 17:37:54;;;;;;;35.17;19.50;;;;;;;;;;4888528;29;20025;-83
2021/12/14 17:40:28;;;;;;;49.88;21.38;;;;;;;;;;4883355;29;20032;-83
2021/12/14 17:42:57;;;;;;;45.35;20.08;;;;;;;;;;4883754;29;20033;-81
2021/12/14 17:45:25;;;;;;;25.88;13.63;;;;;;;;;;4894611;29;20549;-81
2021/12/14 17:47:53;;;;;;;22.33;12.50;;;;;;;;;;4895085;29;20052;-81
2021/12/14 17:50:24;;;;;;;24.10;13.48;;;;;;;;;;4890845;29;20020;-81
2021/12/14 17:52:52;;;;;;;25.83;12.57;;;;;;;;;;4889877;29;20038;-82
2021/12/14 17:55:21;;;;;;;18.85;10.27;;;;;;;;;;4898853;29;20033;-81
2021/12/14 17:57:54;;;;;;;28.00;11.32;;;;;;;;;;4891529;29;20049;-82
2021/12/14 18:00:29;;;;;;;16.17;9.13;;;;;;;;;;4889549;29;20030;-81
2021/12/14 18:03:03;;;;;;;22.13;11.05;;;;;;;;;;4892666;29;20036;-81
2021/12/14 18:05:31;;;;;;;21.42;10.38;;;;;;;;;;4887038;29;20028;-81
2021/12/14 18:08:02;;;;;;;19.80;10.55;;;;;;;;;;4890793;29;20029;-80
2021/12/14 18:10:33;;;;;;;17.87;10.23;;;;;;;;;;4892221;29;20151;-82
2021/12/14 18:13:03;;;;;;;18.75;8.90;;;;;;;;;;4895159;29;20064;-84
2021/12/14 18:15:33;;;;;;;20.08;9.73;;;;;;;;;;4894513;29;20072;-83
2021/12/14 18:20:44;;;;;;;22.10;10.20;;;;;;;;;;4898545;29;20466;-84
2021/12/14 18:23:17;;;;;;;21.60;10.48;;;;;;;;;;4893594;29;20039;-84
2021/12/14 18:25:44;;;;;;;23.58;10.57;;;;;;;;;;4891273;29;20064;-80
2021/12/14 18:28:11;;;;;;;19.65;10.43;;;;;;;;;;4895365;29;20083;-83
2021/12/14 18:30:37;;;;;;;24.42;11.18;;;;;;;;;;4891398;29;20029;-82
2021/12/14 18:33:04;;;;;;;25.85;11.05;;;;;;;;;;4887368;29;20061;-81
2021/12/14 18:35:31;;;;;;;22.00;10.60;;;;;;;;;;4891589;29;20522;-82
2021/12/14 18:38:04;;;;;;;23.67;12.40;;;;;;;;;;4890449;29;20025;-81
2021/12/14 18:40:35;;;;;;;47.08;21.90;;;;;;;;;;4893179;29;20100;-79
2021/12/14 18:43:04;;;;;;;41.40;21.17;;;;;;;;;;4893347;29;20021;-83
2021/12/14 18:45:30;;;;;;;47.50;23.70;;;;;;;;;;4885888;29;20033;-83
2021/12/14 18:50:50;;;;;;;38.03;16.83;;;;;;;;;;4830288;29;20137;-83
2021/12/14 18:53:25;;;;;;;28.83;15.02;;;;;;;;;;4828182;29;20046;-86
2021/12/14 18:55:51;;;;;;;28.38;13.18;;;;;;;;;;4830403;29;20407;-83
2021/12/14 18:58:20;;;;;;;26.30;14.70;;;;;;;;;;4835786;29;20057;-81
2021/12/14 19:00:51;;;;;;;26.70;13.50;;;;;;;;;;4840586;29;20022;-82
2021/12/14 19:03:20;;;;;;;31.15;14.63;;;;;;;;;;4839001;29;20026;-84
2021/12/14 19:05:51;;;;;;;27.92;15.13;;;;;;;;;;4831441;29;20535;-80
2021/12/14 19:08:18;;;;;;;27.13;15.15;;;;;;;;;;4831050;29;20065;-80
2021/12/14 19:10:50;;;;;;;38.97;17.27;;;;;;;;;;4827966;29;20027;-80
2021/12/14 19:13:21;;;;;;;36.55;19.33;;;;;;;;;;4832395;29;20034;-80
2021/12/14 19:15:49;;;;;;;34.85;19.02;;;;;;;;;;4838554;29;20046;-80
2021/12/14 19:18:16;;;;;;;37.88;21.45;;;;;;;;;;4829647;29;20509;-80
2021/12/14 19:20:45;;;;;;;36.58;20.92;;;;;;;;;;4830710;29;20042;-80
2021/12/14 19:23:12;;;;;;;32.72;18.73;;;;;;;;;;4839869;29;20029;-80
2021/12/14 19:25:40;;;;;;;30.20;18.05;;;;;;;;;;4841401;29;20042;-80
2021/12/14 19:28:08;;;;;;;34.78;17.42;;;;;;;;;;4881696;29;20401;-80
2021/12/14 19:30:34;;;;;;;26.38;15.02;;;;;;;;;;4890704;29;20453;-80
2021/12/14 19:33:00;;;;;;;30.50;15.50;;;;;;;;;;4885118;29;20033;-80
2021/12/14 19:35:36;;;;;;;38.60;21.00;;;;;;;;;;4892062;29;20028;-80
2021/12/14 19:38:13;;;;;;;37.92;19.10;;;;;;;;;;4891145;29;20016;-87
2021/12/14 19:40:44;;;;;;;34.05;17.00;;;;;;;;;;4889069;29;20052;-80
2021/12/14 19:43:16;;;;;;;36.70;19.00;;;;;;;;;;4880593;29;20107;-80
2021/12/14 19:45:44;;;;;;;29.95;16.92;;;;;;;;;;4891713;29;20500;-80
2021/12/14 19:48:30;;;;;;;28.95;15.05;;;;;;;;;;4892182;29;20577;-82
2021/12/14 19:51:00;;;;;;;24.08;14.32;;;;;;;;;;4880104;29;20029;-80
2021/12/14 19:53:27;;;;;;;27.52;15.95;;;;;;;;;;4880439;29;20104;-80
2021/12/14 19:55:54;;;;;;;31.58;16.83;;;;;;;;;;4892812;29;20029;-80
2021/12/14 19:58:22;;;;;;;31.23;15.90;;;;;;;;;;4876984;29;20489;-80
2021/12/14 20:00:49;;;;;;;29.42;15.93;;;;;;;;;;4878990;29;20025;-80
2021/12/14 20:03:20;;;;;;;30.85;15.52;;;;;;;;;;4877805;29;20025;-81
2021/12/14 20:05:48;;;;;;;33.28;16.60;;;;;;;;;;4879990;29;20029;-80
2021/12/14 20:08:22;;;;;;;27.83;14.95;;;;;;;;;;4879637;29;20036;-79
2021/12/14 20:10:57;;;;;;;28.65;14.88;;;;;;;;;;4879191;29;20493;-80
2021/12/14 20:13:23;;;;;;;30.77;15.48;;;;;;;;;;4879416;29;20445;-80
2021/12/14 20:15:51;;;;;;;27.60;15.65;;;;;;;;;;4882411;29;20501;-79
2021/12/14 20:18:20;;;;;;;25.58;14.45;;;;;;;;;;4893701;29;20033;-80
2021/12/14 20:20:51;;;;;;;23.48;14.57;;;;;;;;;;4880426;29;20520;-79
2021/12/14 20:23:22;;;;;;;27.90;13.95;;;;;;;;;;4879722;29;20490;-80
2021/12/14 20:25:50;;;;;;;24.02;14.35;;;;;;;;;;4879868;29;20045;-80
2021/12/14 20:28:26;;;;;;;24.08;14.15;;;;;;;;;;4879722;29;20029;-79
2021/12/14 20:30:54;;;;;;;26.65;15.18;;;;;;;;;;4880057;29;20040;-79
2021/12/14 20:33:30;;;;;;;27.65;14.75;;;;;;;;;;4879221;29;20025;-80
2021/12/14 20:35:57;;;;;;;25.52;14.52;;;;;;;;;;4879362;29;20052;-80
2021/12/14 20:38:24;;;;;;;28.02;14.95;;;;;;;;;;4879551;29;20731;-79
2021/12/14 20:40:53;;;;;;;26.20;16.17;;;;;;;;;;4879322;29;20047;-79
2021/12/14 20:43:36;;;;;;;31.40;16.92;;;;;;;;;;4879696;29;20147;-80
2021/12/14 20:46:02;;;;;;;29.33;17.25;;;;;;;;;;4879518;29;20029;-79
2021/12/14 20:48:35;;;;;;;33.60;17.13;;;;;;;;;;4879478;29;20033;-80
2021/12/14 20:51:06;;;;;;;33.42;17.05;;;;;;;;;;4879553;29;20040;-79
2021/12/14 20:53:32;;;;;;;32.95;16.70;;;;;;;;;;4879781;29;20512;-79
2021/12/14 20:56:04;;;;;;;35.30;17.60;;;;;;;;;;4886703;29;20107;-79
2021/12/14 20:58:31;;;;;;;;;;;;;;;;;;4898859;29;20437;-79
2021/12/14 21:01:05;;;;;;;28.02;15.80;;;;;;;;;;4898065;29;19919;-79
2021/12/14 21:03:41;;;;;;;29.45;16.30;;;;;;;;;;4898116;29;20025;-79
2021/12/14 21:06:36;;;;;;;34.83;17.08;;;;;;;;;;4887059;29;20037;-83
2021/12/14 21:09:09;;;;;;;33.45;17.25;;;;;;;;;;4865422;29;20041;-79
2021/12/14 21:11:36;;;;;;;30.17;16.42;;;;;;;;;;4891756;29;20111;-79
2021/12/14 21:14:08;;;;;;;29.98;17.30;;;;;;;;;;4879720;29;20120;-79
2021/12/14 21:16:36;;;;;;;34.38;17.63;;;;;;;;;;4897134;29;20025;-79
2021/12/14 21:19:13;;;;;;;36.97;16.70;;;;;;;;;;4887660;29;20021;-79
2021/12/14 21:21:39;;;;;;;33.20;17.38;;;;;;;;;;4878529;29;20032;-80
2021/12/14 21:24:10;;;;;;;34.85;17.42;;;;;;;;;;4895029;29;20051;-79
2021/12/14 21:26:36;;;;;;;31.90;17.08;;;;;;;;;;4897010;29;20496;-79
2021/12/14 21:29:03;;;;;;;36.60;18.83;;;;;;;;;;4896900;29;20052;-80
2021/12/14 21:31:29;;;;;;;39.83;20.15;;;;;;;;;;4881074;29;20045;-79
2021/12/14 21:33:55;;;;;;;37.05;19.90;;;;;;;;;;4884205;29;20039;-79
2021/12/14 21:36:25;;;;;;;37.53;20.33;;;;;;;;;;4893794;29;20025;-80
2021/12/14 21:38:53;;;;;;;34.80;17.58;;;;;;;;;;4889523;29;20052;-79
2021/12/14 21:41:28;;;;;;;34.78;19.08;;;;;;;;;;4894680;29;20485;-79
2021/12/14 21:44:05;;;;;;;32.60;18.55;;;;;;;;;;4896681;29;20029;-80
2021/12/14 21:46:45;;;;;;;36.40;17.95;;;;;;;;;;4879383;29;20028;-80
2021/12/14 21:49:14;;;;;;;33.17;17.45;;;;;;;;;;4878211;29;20025;-79
2021/12/14 21:51:41;;;;;;;34.13;16.90;;;;;;;;;;4892210;29;20043;-79
2021/12/14 21:54:08;;;;;;;36.78;18.05;;;;;;;;;;4886162;29;20033;-80
2021/12/14 21:56:34;;;;;;;30.40;16.33;;;;;;;;;;4884787;29;20160;-80
2021/12/14 21:59:00;;;;;;;34.20;17.75;;;;;;;;;;4886240;29;20061;-80
2021/12/14 22:01:28;;;;;;;29.40;16.52;;;;;;;;;;4885241;29;20029;-80
2021/12/14 22:03:55;;;;;;;34.00;17.98;;;;;;;;;;4886769;29;20358;-80
2021/12/14 22:06:21;;;;;;;30.48;16.40;;;;;;;;;;4885417;29;20032;-80
2021/12/14 22:08:47;;;;;;;28.20;16.67;;;;;;;;;;4885202;29;20029;-79
2021/12/14 22:11:13;;;;;;;32.10;16.63;;;;;;;;;;4883094;29;20040;-80
2021/12/14 22:13:45;;;;;;;30.27;16.90;;;;;;;;;;4886634;29;20108;-79
2021/12/14 22:16:14;;;;;;;30.45;17.52;;;;;;;;;;4886340;29;20057;-79
2021/12/14 22:18:41;;;;;;;30.63;15.15;;;;;;;;;;4886765;29;20021;-79
2021/12/14 22:21:08;;;;;;;25.10;13.63;;;;;;;;;;4887956;29;20037;-79
2021/12/14 22:23:35;;;;;;;26.67;14.55;;;;;;;;;;4887697;29;20021;-79
2021/12/14 22:26:03;;;;;;;29.48;14.60;;;;;;;;;;4889755;29;20492;-79
2021/12/14 22:28:29;;;;;;;30.83;15.40;;;;;;;;;;4888382;29;20104;-79
2021/12/14 22:30:55;;;;;;;31.42;15.27;;;;;;;;;;4889970;29;20116;-80
2021/12/14 22:33:21;;;;;;;29.45;14.93;;;;;;;;;;4888200;29;20032;-80
2021/12/14 22:35:48;;;;;;;29.67;15.18;;;;;;;;;;4888506;29;20043;-79
2021/12/14 22:38:15;;;;;;;30.30;15.93;;;;;;;;;;4880427;29;20436;-80
2021/12/14 22:46:04;;;;;;;35.10;16.52;;;;;;;;;;4887080;29;20132;-79
2021/12/14 22:48:30;;;;;;;32.53;15.68;;;;;;;;;;4889365;29;20036;-79